sensor_id;sensor_type;location;lat;lon;timestamp;temperature;humidity
49489;SHT31;35382;51.484;11.476;2023-11-19T00:01:43;4.31;97.58
49489;SHT31;35382;51.484;11.476;2023-11-19T00:04:08;4.23;97.47
49489;SHT31;35382;51.484;11.476;2023-11-19T00:06:33;4.29;97.30
49489;SHT31;35382;51.484;11.476;2023-11-19T00:09:02;4.36;97.01
49489;SHT31;35382;51.484;11.476;2023-11-19T00:11:27;4.29;97.09
49489;SHT31;35382;51.484;11.476;2023-11-19T00:13:52;4.37;97.11
49489;SHT31;35382;51.484;11.476;2023-11-19T00:16:18;4.30;97.10
49489;SHT31;35382;51.484;11.476;2023-11-19T00:18:43;4.38;96.93
49489;SHT31;35382;51.484;11.476;2023-11-19T00:21:08;4.30;97.02
49489;SHT31;35382;51.484;11.476;2023-11-19T00:23:34;4.31;97.20
49489;SHT31;35382;51.484;11.476;2023-11-19T00:25:59;4.25;97.18
49489;SHT31;35382;51.484;11.476;2023-11-19T00:28:24;4.34;97.03
49489;SHT31;35382;51.484;11.476;2023-11-19T00:30:50;4.37;97.17
49489;SHT31;35382;51.484;11.476;2023-11-19T00:33:15;4.37;97.19
49489;SHT31;35382;51.484;11.476;2023-11-19T00:35:41;4.44;96.71
49489;SHT31;35382;51.484;11.476;2023-11-19T00:38:06;4.27;96.84
49489;SHT31;35382;51.484;11.476;2023-11-19T00:40:31;4.37;97.17
49489;SHT31;35382;51.484;11.476;2023-11-19T00:42:57;4.40;96.93
49489;SHT31;35382;51.484;11.476;2023-11-19T00:45:22;4.41;96.96
49489;SHT31;35382;51.484;11.476;2023-11-19T00:47:48;4.43;96.73
49489;SHT31;35382;51.484;11.476;2023-11-19T00:50:13;4.51;96.84
49489;SHT31;35382;51.484;11.476;2023-11-19T00:52:38;4.53;96.49
49489;SHT31;35382;51.484;11.476;2023-11-19T00:55:04;4.54;96.46
49489;SHT31;35382;51.484;11.476;2023-11-19T00:57:31;4.53;96.64
49489;SHT31;35382;51.484;11.476;2023-11-19T00:59:56;4.58;96.32
49489;SHT31;35382;51.484;11.476;2023-11-19T01:02:25;4.51;96.38
49489;SHT31;35382;51.484;11.476;2023-11-19T01:04:50;4.50;96.63
49489;SHT31;35382;51.484;11.476;2023-11-19T01:07:15;4.54;96.69
49489;SHT31;35382;51.484;11.476;2023-11-19T01:09:42;4.48;96.81
49489;SHT31;35382;51.484;11.476;2023-11-19T01:12:07;4.54;96.76
49489;SHT31;35382;51.484;11.476;2023-11-19T01:14:32;4.53;96.75
49489;SHT31;35382;51.484;11.476;2023-11-19T01:16:58;4.55;96.65
49489;SHT31;35382;51.484;11.476;2023-11-19T01:19:24;4.62;96.70
49489;SHT31;35382;51.484;11.476;2023-11-19T01:21:50;4.54;96.95
49489;SHT31;35382;51.484;11.476;2023-11-19T01:24:16;4.62;96.92
49489;SHT31;35382;51.484;11.476;2023-11-19T01:26:41;4.60;97.01
49489;SHT31;35382;51.484;11.476;2023-11-19T01:29:06;4.62;97.00
49489;SHT31;35382;51.484;11.476;2023-11-19T01:31:33;4.61;97.12
49489;SHT31;35382;51.484;11.476;2023-11-19T01:33:58;4.67;97.09
49489;SHT31;35382;51.484;11.476;2023-11-19T01:36:24;4.69;97.18
49489;SHT31;35382;51.484;11.476;2023-11-19T01:38:49;4.79;96.86
49489;SHT31;35382;51.484;11.476;2023-11-19T01:41:15;4.68;97.10
49489;SHT31;35382;51.484;11.476;2023-11-19T01:43:40;4.71;97.05
49489;SHT31;35382;51.484;11.476;2023-11-19T01:46:06;4.74;97.14
49489;SHT31;35382;51.484;11.476;2023-11-19T01:48:33;4.79;97.19
49489;SHT31;35382;51.484;11.476;2023-11-19T01:50:58;4.69;97.40
49489;SHT31;35382;51.484;11.476;2023-11-19T01:53:25;4.77;97.71
49489;SHT31;35382;51.484;11.476;2023-11-19T01:55:51;4.81;97.88
49489;SHT31;35382;51.484;11.476;2023-11-19T01:58:17;4.82;97.88
49489;SHT31;35382;51.484;11.476;2023-11-19T02:00:44;4.85;98.05
49489;SHT31;35382;51.484;11.476;2023-11-19T02:03:10;4.88;97.92
49489;SHT31;35382;51.484;11.476;2023-11-19T02:05:36;4.89;97.99
49489;SHT31;35382;51.484;11.476;2023-11-19T02:08:02;4.88;98.09
49489;SHT31;35382;51.484;11.476;2023-11-19T02:10:27;4.92;98.07
49489;SHT31;35382;51.484;11.476;2023-11-19T02:12:53;4.93;97.90
49489;SHT31;35382;51.484;11.476;2023-11-19T02:15:18;4.92;97.93
49489;SHT31;35382;51.484;11.476;2023-11-19T02:17:44;4.91;98.06
49489;SHT31;35382;51.484;11.476;2023-11-19T02:20:10;4.92;98.12
49489;SHT31;35382;51.484;11.476;2023-11-19T02:22:35;4.91;98.18
49489;SHT31;35382;51.484;11.476;2023-11-19T02:25:04;4.87;98.29
49489;SHT31;35382;51.484;11.476;2023-11-19T02:27:41;4.92;98.28
49489;SHT31;35382;51.484;11.476;2023-11-19T02:30:07;4.99;98.08
49489;SHT31;35382;51.484;11.476;2023-11-19T02:32:33;4.95;97.91
49489;SHT31;35382;51.484;11.476;2023-11-19T02:34:59;4.92;97.91
49489;SHT31;35382;51.484;11.476;2023-11-19T02:37:24;4.89;98.04
49489;SHT31;35382;51.484;11.476;2023-11-19T02:39:50;4.89;98.15
49489;SHT31;35382;51.484;11.476;2023-11-19T02:42:15;4.93;98.33
49489;SHT31;35382;51.484;11.476;2023-11-19T02:44:44;4.95;98.31
49489;SHT31;35382;51.484;11.476;2023-11-19T02:47:09;4.91;98.44
49489;SHT31;35382;51.484;11.476;2023-11-19T02:49:35;4.92;98.62
49489;SHT31;35382;51.484;11.476;2023-11-19T02:52:00;5.01;98.83
49489;SHT31;35382;51.484;11.476;2023-11-19T02:54:25;5.08;98.98
49489;SHT31;35382;51.484;11.476;2023-11-19T02:56:51;5.08;99.06
49489;SHT31;35382;51.484;11.476;2023-11-19T02:59:16;5.09;99.10
49489;SHT31;35382;51.484;11.476;2023-11-19T03:01:42;5.11;99.19
49489;SHT31;35382;51.484;11.476;2023-11-19T03:04:07;5.13;99.24
49489;SHT31;35382;51.484;11.476;2023-11-19T03:06:32;5.13;99.19
49489;SHT31;35382;51.484;11.476;2023-11-19T03:08:58;5.15;99.15
49489;SHT31;35382;51.484;11.476;2023-11-19T03:11:23;5.16;99.03
49489;SHT31;35382;51.484;11.476;2023-11-19T03:13:49;5.12;99.11
49489;SHT31;35382;51.484;11.476;2023-11-19T03:16:14;5.12;99.19
49489;SHT31;35382;51.484;11.476;2023-11-19T03:18:39;5.12;99.25
49489;SHT31;35382;51.484;11.476;2023-11-19T03:21:08;5.15;99.28
49489;SHT31;35382;51.484;11.476;2023-11-19T03:23:34;5.16;99.36
49489;SHT31;35382;51.484;11.476;2023-11-19T03:25:59;5.23;99.48
49489;SHT31;35382;51.484;11.476;2023-11-19T03:28:25;5.21;99.47
49489;SHT31;35382;51.484;11.476;2023-11-19T03:30:50;5.22;99.51
49489;SHT31;35382;51.484;11.476;2023-11-19T03:33:15;5.23;99.63
49489;SHT31;35382;51.484;11.476;2023-11-19T03:35:41;5.23;99.66
49489;SHT31;35382;51.484;11.476;2023-11-19T03:38:06;5.25;99.79
49489;SHT31;35382;51.484;11.476;2023-11-19T03:40:32;5.23;99.85
49489;SHT31;35382;51.484;11.476;2023-11-19T03:42:57;5.23;99.93
49489;SHT31;35382;51.484;11.476;2023-11-19T03:45:23;5.31;99.99
49489;SHT31;35382;51.484;11.476;2023-11-19T03:47:48;5.29;99.99
49489;SHT31;35382;51.484;11.476;2023-11-19T03:50:14;5.33;99.99
49489;SHT31;35382;51.484;11.476;2023-11-19T03:52:39;5.29;99.99
49489;SHT31;35382;51.484;11.476;2023-11-19T03:55:07;5.32;99.99
49489;SHT31;35382;51.484;11.476;2023-11-19T03:57:32;5.32;99.99
49489;SHT31;35382;51.484;11.476;2023-11-19T03:59:57;5.33;99.99
49489;SHT31;35382;51.484;11.476;2023-11-19T04:02:23;5.36;99.99
49489;SHT31;35382;51.484;11.476;2023-11-19T04:04:48;5.38;99.99
49489;SHT31;35382;51.484;11.476;2023-11-19T04:07:14;5.40;99.99
49489;SHT31;35382;51.484;11.476;2023-11-19T04:09:39;5.43;99.99
49489;SHT31;35382;51.484;11.476;2023-11-19T04:12:05;5.45;99.99
49489;SHT31;35382;51.484;11.476;2023-11-19T04:14:30;5.46;99.99
49489;SHT31;35382;51.484;11.476;2023-11-19T04:16:56;5.45;99.99
49489;SHT31;35382;51.484;11.476;2023-11-19T04:19:21;5.53;99.99
49489;SHT31;35382;51.484;11.476;2023-11-19T04:21:47;5.52;99.99
49489;SHT31;35382;51.484;11.476;2023-11-19T04:24:12;5.50;99.99
49489;SHT31;35382;51.484;11.476;2023-11-19T04:26:43;5.50;99.99
49489;SHT31;35382;51.484;11.476;2023-11-19T04:29:11;5.50;99.99
49489;SHT31;35382;51.484;11.476;2023-11-19T04:31:37;5.52;99.99
49489;SHT31;35382;51.484;11.476;2023-11-19T04:34:02;5.52;99.99
49489;SHT31;35382;51.484;11.476;2023-11-19T04:36:28;5.52;99.99
49489;SHT31;35382;51.484;11.476;2023-11-19T04:38:53;5.63;99.99
49489;SHT31;35382;51.484;11.476;2023-11-19T04:41:18;5.65;99.99
49489;SHT31;35382;51.484;11.476;2023-11-19T04:43:44;5.69;99.99
49489;SHT31;35382;51.484;11.476;2023-11-19T04:46:09;5.79;99.99
49489;SHT31;35382;51.484;11.476;2023-11-19T04:48:35;5.85;99.99
49489;SHT31;35382;51.484;11.476;2023-11-19T04:51:00;5.87;99.99
49489;SHT31;35382;51.484;11.476;2023-11-19T04:53:25;5.91;99.99
49489;SHT31;35382;51.484;11.476;2023-11-19T04:55:51;5.91;99.99
49489;SHT31;35382;51.484;11.476;2023-11-19T04:58:16;5.97;99.93
49489;SHT31;35382;51.484;11.476;2023-11-19T05:00:42;6.03;99.78
49489;SHT31;35382;51.484;11.476;2023-11-19T05:03:07;6.04;99.68
49489;SHT31;35382;51.484;11.476;2023-11-19T05:05:32;6.13;99.58
49489;SHT31;35382;51.484;11.476;2023-11-19T05:07:58;6.18;99.44
49489;SHT31;35382;51.484;11.476;2023-11-19T05:10:23;6.17;99.36
49489;SHT31;35382;51.484;11.476;2023-11-19T05:12:48;6.16;99.35
49489;SHT31;35382;51.484;11.476;2023-11-19T05:15:17;6.21;99.30
49489;SHT31;35382;51.484;11.476;2023-11-19T05:17:42;6.18;99.20
49489;SHT31;35382;51.484;11.476;2023-11-19T05:20:08;6.18;99.29
49489;SHT31;35382;51.484;11.476;2023-11-19T05:22:34;6.23;99.38
49489;SHT31;35382;51.484;11.476;2023-11-19T05:25:02;6.18;99.46
49489;SHT31;35382;51.484;11.476;2023-11-19T05:27:27;6.25;99.50
49489;SHT31;35382;51.484;11.476;2023-11-19T05:29:52;6.24;99.44
49489;SHT31;35382;51.484;11.476;2023-11-19T05:32:18;6.24;99.42
49489;SHT31;35382;51.484;11.476;2023-11-19T05:34:43;6.17;99.50
49489;SHT31;35382;51.484;11.476;2023-11-19T05:37:08;6.18;99.58
49489;SHT31;35382;51.484;11.476;2023-11-19T05:39:34;6.17;99.79
49489;SHT31;35382;51.484;11.476;2023-11-19T05:41:59;6.13;99.92
49489;SHT31;35382;51.484;11.476;2023-11-19T05:44:25;6.28;99.99
49489;SHT31;35382;51.484;11.476;2023-11-19T05:46:50;6.35;99.99
49489;SHT31;35382;51.484;11.476;2023-11-19T05:49:15;6.37;99.99
49489;SHT31;35382;51.484;11.476;2023-11-19T05:51:43;6.42;99.99
49489;SHT31;35382;51.484;11.476;2023-11-19T05:54:09;6.35;99.99
49489;SHT31;35382;51.484;11.476;2023-11-19T05:56:35;6.40;99.99
49489;SHT31;35382;51.484;11.476;2023-11-19T05:59:00;6.42;99.99
49489;SHT31;35382;51.484;11.476;2023-11-19T06:01:25;6.45;99.99
49489;SHT31;35382;51.484;11.476;2023-11-19T06:03:51;6.47;99.99
49489;SHT31;35382;51.484;11.476;2023-11-19T06:06:16;6.45;99.99
49489;SHT31;35382;51.484;11.476;2023-11-19T06:08:42;6.51;99.99
49489;SHT31;35382;51.484;11.476;2023-11-19T06:11:07;6.55;99.93
49489;SHT31;35382;51.484;11.476;2023-11-19T06:13:33;6.55;99.82
49489;SHT31;35382;51.484;11.476;2023-11-19T06:15:58;6.58;99.78
49489;SHT31;35382;51.484;11.476;2023-11-19T06:18:23;6.63;99.79
49489;SHT31;35382;51.484;11.476;2023-11-19T06:20:49;6.63;99.77
49489;SHT31;35382;51.484;11.476;2023-11-19T06:23:14;6.65;99.75
49489;SHT31;35382;51.484;11.476;2023-11-19T06:25:40;6.65;99.77
49489;SHT31;35382;51.484;11.476;2023-11-19T06:28:05;6.68;99.71
49489;SHT31;35382;51.484;11.476;2023-11-19T06:30:30;6.74;99.78
49489;SHT31;35382;51.484;11.476;2023-11-19T06:32:56;6.78;99.74
49489;SHT31;35382;51.484;11.476;2023-11-19T06:35:21;6.84;99.73
49489;SHT31;35382;51.484;11.476;2023-11-19T06:37:47;6.96;99.64
49489;SHT31;35382;51.484;11.476;2023-11-19T06:40:12;7.06;99.47
49489;SHT31;35382;51.484;11.476;2023-11-19T06:42:37;7.09;99.39
49489;SHT31;35382;51.484;11.476;2023-11-19T06:45:03;7.20;99.39
49489;SHT31;35382;51.484;11.476;2023-11-19T06:47:29;7.32;99.26
49489;SHT31;35382;51.484;11.476;2023-11-19T06:49:54;7.39;99.16
49489;SHT31;35382;51.484;11.476;2023-11-19T06:52:20;7.35;99.15
49489;SHT31;35382;51.484;11.476;2023-11-19T06:54:46;7.40;99.25
49489;SHT31;35382;51.484;11.476;2023-11-19T06:57:11;7.50;99.14
49489;SHT31;35382;51.484;11.476;2023-11-19T06:59:37;7.56;98.91
49489;SHT31;35382;51.484;11.476;2023-11-19T07:02:03;7.63;98.88
49489;SHT31;35382;51.484;11.476;2023-11-19T07:04:28;7.63;98.82
49489;SHT31;35382;51.484;11.476;2023-11-19T07:06:54;7.69;98.73
49489;SHT31;35382;51.484;11.476;2023-11-19T07:09:19;7.77;98.69
49489;SHT31;35382;51.484;11.476;2023-11-19T07:11:44;7.79;98.62
49489;SHT31;35382;51.484;11.476;2023-11-19T07:14:10;7.77;98.80
49489;SHT31;35382;51.484;11.476;2023-11-19T07:16:35;7.84;98.74
49489;SHT31;35382;51.484;11.476;2023-11-19T07:19:01;7.87;98.56
49489;SHT31;35382;51.484;11.476;2023-11-19T07:21:27;7.97;98.45
49489;SHT31;35382;51.484;11.476;2023-11-19T07:23:52;7.93;98.49
49489;SHT31;35382;51.484;11.476;2023-11-19T07:26:17;7.95;98.57
49489;SHT31;35382;51.484;11.476;2023-11-19T07:28:43;7.89;98.71
49489;SHT31;35382;51.484;11.476;2023-11-19T07:31:08;7.81;98.68
49489;SHT31;35382;51.484;11.476;2023-11-19T07:33:34;7.83;98.73
49489;SHT31;35382;51.484;11.476;2023-11-19T07:35:59;7.70;98.61
49489;SHT31;35382;51.484;11.476;2023-11-19T07:38:24;7.67;98.64
49489;SHT31;35382;51.484;11.476;2023-11-19T07:40:50;7.77;98.65
49489;SHT31;35382;51.484;11.476;2023-11-19T07:43:15;7.94;98.70
49489;SHT31;35382;51.484;11.476;2023-11-19T07:45:40;8.07;98.84
49489;SHT31;35382;51.484;11.476;2023-11-19T07:48:06;8.20;98.59
49489;SHT31;35382;51.484;11.476;2023-11-19T07:50:31;8.33;98.27
49489;SHT31;35382;51.484;11.476;2023-11-19T07:52:57;8.40;98.19
49489;SHT31;35382;51.484;11.476;2023-11-19T07:55:22;8.47;97.95
49489;SHT31;35382;51.484;11.476;2023-11-19T07:57:47;8.51;97.88
49489;SHT31;35382;51.484;11.476;2023-11-19T08:00:13;8.57;97.76
49489;SHT31;35382;51.484;11.476;2023-11-19T08:02:39;8.65;97.69
49489;SHT31;35382;51.484;11.476;2023-11-19T08:05:04;8.69;97.62
49489;SHT31;35382;51.484;11.476;2023-11-19T08:07:30;8.89;97.13
49489;SHT31;35382;51.484;11.476;2023-11-19T08:09:55;8.99;96.92
49489;SHT31;35382;51.484;11.476;2023-11-19T08:12:21;9.06;96.72
49489;SHT31;35382;51.484;11.476;2023-11-19T08:14:46;9.16;96.43
49489;SHT31;35382;51.484;11.476;2023-11-19T08:17:11;9.22;96.23
49489;SHT31;35382;51.484;11.476;2023-11-19T08:19:37;9.29;96.23
49489;SHT31;35382;51.484;11.476;2023-11-19T08:22:02;9.23;96.33
49489;SHT31;35382;51.484;11.476;2023-11-19T08:24:28;9.25;96.36
49489;SHT31;35382;51.484;11.476;2023-11-19T08:26:53;9.22;96.54
49489;SHT31;35382;51.484;11.476;2023-11-19T08:29:19;9.22;96.70
49489;SHT31;35382;51.484;11.476;2023-11-19T08:31:44;9.30;96.92
49489;SHT31;35382;51.484;11.476;2023-11-19T08:34:11;9.36;96.85
49489;SHT31;35382;51.484;11.476;2023-11-19T08:36:37;9.54;96.58
49489;SHT31;35382;51.484;11.476;2023-11-19T08:39:02;9.60;96.44
49489;SHT31;35382;51.484;11.476;2023-11-19T08:41:28;9.70;95.90
49489;SHT31;35382;51.484;11.476;2023-11-19T08:43:53;9.79;96.21
49489;SHT31;35382;51.484;11.476;2023-11-19T08:46:19;9.70;95.83
49489;SHT31;35382;51.484;11.476;2023-11-19T08:48:44;9.72;95.89
49489;SHT31;35382;51.484;11.476;2023-11-19T08:51:10;9.77;96.07
49489;SHT31;35382;51.484;11.476;2023-11-19T08:53:35;9.60;96.22
49489;SHT31;35382;51.484;11.476;2023-11-19T08:56:01;9.63;96.28
49489;SHT31;35382;51.484;11.476;2023-11-19T08:58:27;9.73;96.03
49489;SHT31;35382;51.484;11.476;2023-11-19T09:00:52;9.79;96.29
49489;SHT31;35382;51.484;11.476;2023-11-19T09:03:18;9.90;96.37
49489;SHT31;35382;51.484;11.476;2023-11-19T09:05:44;10.06;96.33
49489;SHT31;35382;51.484;11.476;2023-11-19T09:08:09;10.18;95.49
49489;SHT31;35382;51.484;11.476;2023-11-19T09:10:38;10.79;95.35
49489;SHT31;35382;51.484;11.476;2023-11-19T09:13:04;11.11;93.98
49489;SHT31;35382;51.484;11.476;2023-11-19T09:15:29;10.85;93.46
49489;SHT31;35382;51.484;11.476;2023-11-19T09:17:57;10.71;93.75
49489;SHT31;35382;51.484;11.476;2023-11-19T09:20:25;10.67;93.93
49489;SHT31;35382;51.484;11.476;2023-11-19T09:22:50;10.76;94.28
49489;SHT31;35382;51.484;11.476;2023-11-19T09:25:16;10.78;94.03
49489;SHT31;35382;51.484;11.476;2023-11-19T09:27:41;10.71;93.89
49489;SHT31;35382;51.484;11.476;2023-11-19T09:30:07;10.69;93.79
49489;SHT31;35382;51.484;11.476;2023-11-19T09:32:32;10.52;93.80
49489;SHT31;35382;51.484;11.476;2023-11-19T09:34:58;10.50;94.87
49489;SHT31;35382;51.484;11.476;2023-11-19T09:37:23;10.38;94.78
49489;SHT31;35382;51.484;11.476;2023-11-19T09:39:51;10.36;94.93
49489;SHT31;35382;51.484;11.476;2023-11-19T09:42:17;10.38;94.63
49489;SHT31;35382;51.484;11.476;2023-11-19T09:44:42;10.33;95.35
49489;SHT31;35382;51.484;11.476;2023-11-19T09:47:08;10.40;95.29
49489;SHT31;35382;51.484;11.476;2023-11-19T09:49:35;10.41;95.38
49489;SHT31;35382;51.484;11.476;2023-11-19T09:52:01;10.42;95.04
49489;SHT31;35382;51.484;11.476;2023-11-19T09:54:26;10.44;95.02
49489;SHT31;35382;51.484;11.476;2023-11-19T09:56:56;10.44;95.09
49489;SHT31;35382;51.484;11.476;2023-11-19T09:59:22;10.45;94.92
49489;SHT31;35382;51.484;11.476;2023-11-19T10:01:48;10.54;94.92
49489;SHT31;35382;51.484;11.476;2023-11-19T10:04:15;10.78;94.72
49489;SHT31;35382;51.484;11.476;2023-11-19T10:06:41;11.01;94.21
49489;SHT31;35382;51.484;11.476;2023-11-19T10:09:07;11.46;93.10
49489;SHT31;35382;51.484;11.476;2023-11-19T10:11:32;11.56;92.64
49489;SHT31;35382;51.484;11.476;2023-11-19T10:13:59;11.46;92.09
49489;SHT31;35382;51.484;11.476;2023-11-19T10:16:28;11.26;92.63
49489;SHT31;35382;51.484;11.476;2023-11-19T10:19:19;11.05;93.46
49489;SHT31;35382;51.484;11.476;2023-11-19T10:22:16;10.54;94.97
49489;SHT31;35382;51.484;11.476;2023-11-19T10:25:24;10.20;94.08
49489;SHT31;35382;51.484;11.476;2023-11-19T10:27:50;10.17;95.33
49489;SHT31;35382;51.484;11.476;2023-11-19T10:30:27;10.11;96.06
49489;SHT31;35382;51.484;11.476;2023-11-19T10:35:29;10.18;95.51
49489;SHT31;35382;51.484;11.476;2023-11-19T10:37:55;10.27;96.08
49489;SHT31;35382;51.484;11.476;2023-11-19T10:40:21;10.18;96.12
49489;SHT31;35382;51.484;11.476;2023-11-19T10:42:47;10.07;95.83
49489;SHT31;35382;51.484;11.476;2023-11-19T10:45:23;10.13;93.75
49489;SHT31;35382;51.484;11.476;2023-11-19T10:47:52;10.18;92.46
49489;SHT31;35382;51.484;11.476;2023-11-19T10:50:27;10.17;92.17
49489;SHT31;35382;51.484;11.476;2023-11-19T10:53:31;10.16;92.06
49489;SHT31;35382;51.484;11.476;2023-11-19T10:56:43;10.14;91.74
49489;SHT31;35382;51.484;11.476;2023-11-19T10:59:47;10.28;91.20
49489;SHT31;35382;51.484;11.476;2023-11-19T11:03:18;10.67;90.55
49489;SHT31;35382;51.484;11.476;2023-11-19T11:10:16;11.04;90.09
49489;SHT31;35382;51.484;11.476;2023-11-19T11:13:55;11.04;91.02
49489;SHT31;35382;51.484;11.476;2023-11-19T11:17:20;11.55;88.38
49489;SHT31;35382;51.484;11.476;2023-11-19T11:20:32;12.00;87.93
49489;SHT31;35382;51.484;11.476;2023-11-19T11:23:39;12.20;85.59
49489;SHT31;35382;51.484;11.476;2023-11-19T11:35:08;13.05;81.00
49489;SHT31;35382;51.484;11.476;2023-11-19T11:37:20;13.23;83.44
49489;SHT31;35382;51.484;11.476;2023-11-19T11:39:49;12.85;81.81
49489;SHT31;35382;51.484;11.476;2023-11-19T11:42:31;13.09;80.47
49489;SHT31;35382;51.484;11.476;2023-11-19T11:45:10;12.67;82.39
49489;SHT31;35382;51.484;11.476;2023-11-19T12:29:16;11.43;80.61
49489;SHT31;35382;51.484;11.476;2023-11-19T12:38:59;11.86;77.83
49489;SHT31;35382;51.484;11.476;2023-11-19T12:45:07;12.01;78.98
49489;SHT31;35382;51.484;11.476;2023-11-19T12:48:08;11.76;79.01
49489;SHT31;35382;51.484;11.476;2023-11-19T12:50:59;11.94;79.42
49489;SHT31;35382;51.484;11.476;2023-11-19T13:19:21;12.03;77.74
49489;SHT31;35382;51.484;11.476;2023-11-19T13:22:09;12.00;76.77
49489;SHT31;35382;51.484;11.476;2023-11-19T13:25:17;11.79;76.52
49489;SHT31;35382;51.484;11.476;2023-11-19T13:28:05;11.59;78.56
49489;SHT31;35382;51.484;11.476;2023-11-19T13:30:30;11.56;78.43
49489;SHT31;35382;51.484;11.476;2023-11-19T13:32:56;11.55;79.72
49489;SHT31;35382;51.484;11.476;2023-11-19T13:35:21;11.59;78.87
49489;SHT31;35382;51.484;11.476;2023-11-19T13:37:47;11.36;78.98
49489;SHT31;35382;51.484;11.476;2023-11-19T13:40:13;11.08;80.14
49489;SHT31;35382;51.484;11.476;2023-11-19T13:42:39;11.02;80.11
49489;SHT31;35382;51.484;11.476;2023-11-19T13:45:04;11.04;80.45
49489;SHT31;35382;51.484;11.476;2023-11-19T13:47:30;11.05;79.67
49489;SHT31;35382;51.484;11.476;2023-11-19T13:49:55;11.12;79.54
49489;SHT31;35382;51.484;11.476;2023-11-19T13:52:21;11.19;80.85
49489;SHT31;35382;51.484;11.476;2023-11-19T13:54:46;11.32;79.55
49489;SHT31;35382;51.484;11.476;2023-11-19T13:57:12;11.29;79.68
49489;SHT31;35382;51.484;11.476;2023-11-19T13:59:40;11.30;79.64
49489;SHT31;35382;51.484;11.476;2023-11-19T14:02:06;11.16;80.80
49489;SHT31;35382;51.484;11.476;2023-11-19T14:04:31;11.06;81.37
49489;SHT31;35382;51.484;11.476;2023-11-19T14:06:56;11.04;80.94
49489;SHT31;35382;51.484;11.476;2023-11-19T14:09:22;10.99;81.29
49489;SHT31;35382;51.484;11.476;2023-11-19T14:11:47;10.92;81.76
49489;SHT31;35382;51.484;11.476;2023-11-19T14:14:13;10.71;83.56
49489;SHT31;35382;51.484;11.476;2023-11-19T14:16:38;10.61;84.25
49489;SHT31;35382;51.484;11.476;2023-11-19T14:19:03;10.62;82.85
49489;SHT31;35382;51.484;11.476;2023-11-19T14:21:29;10.60;83.56
49489;SHT31;35382;51.484;11.476;2023-11-19T14:23:54;10.52;83.81
49489;SHT31;35382;51.484;11.476;2023-11-19T14:26:19;10.48;84.64
49489;SHT31;35382;51.484;11.476;2023-11-19T14:28:45;10.42;84.67
49489;SHT31;35382;51.484;11.476;2023-11-19T14:31:10;10.40;84.61
49489;SHT31;35382;51.484;11.476;2023-11-19T14:33:36;10.30;84.73
49489;SHT31;35382;51.484;11.476;2023-11-19T14:36:01;10.30;84.84
49489;SHT31;35382;51.484;11.476;2023-11-19T14:38:27;10.30;85.24
49489;SHT31;35382;51.484;11.476;2023-11-19T14:40:52;10.30;84.93
49489;SHT31;35382;51.484;11.476;2023-11-19T14:43:18;10.31;85.07
49489;SHT31;35382;51.484;11.476;2023-11-19T14:45:43;10.13;85.68
49489;SHT31;35382;51.484;11.476;2023-11-19T14:48:08;10.11;85.66
49489;SHT31;35382;51.484;11.476;2023-11-19T14:50:34;10.07;85.01
49489;SHT31;35382;51.484;11.476;2023-11-19T14:52:59;10.16;85.38
49489;SHT31;35382;51.484;11.476;2023-11-19T14:55:25;9.97;86.15
49489;SHT31;35382;51.484;11.476;2023-11-19T14:57:50;10.03;85.44
49489;SHT31;35382;51.484;11.476;2023-11-19T15:00:16;10.06;85.61
49489;SHT31;35382;51.484;11.476;2023-11-19T15:02:41;10.11;85.32
49489;SHT31;35382;51.484;11.476;2023-11-19T15:05:08;10.22;84.26
49489;SHT31;35382;51.484;11.476;2023-11-19T15:07:34;10.06;85.58
49489;SHT31;35382;51.484;11.476;2023-11-19T15:09:59;10.06;84.78
49489;SHT31;35382;51.484;11.476;2023-11-19T15:12:24;9.93;85.38
49489;SHT31;35382;51.484;11.476;2023-11-19T15:14:50;9.80;86.01
49489;SHT31;35382;51.484;11.476;2023-11-19T15:17:15;9.84;85.78
49489;SHT31;35382;51.484;11.476;2023-11-19T15:19:40;9.77;85.92
49489;SHT31;35382;51.484;11.476;2023-11-19T15:22:06;9.79;85.71
49489;SHT31;35382;51.484;11.476;2023-11-19T15:24:31;9.94;84.70
49489;SHT31;35382;51.484;11.476;2023-11-19T15:26:57;9.90;84.75
49489;SHT31;35382;51.484;11.476;2023-11-19T15:29:22;9.73;85.47
49489;SHT31;35382;51.484;11.476;2023-11-19T15:31:47;9.62;85.73
49489;SHT31;35382;51.484;11.476;2023-11-19T15:34:13;9.60;85.76
49489;SHT31;35382;51.484;11.476;2023-11-19T15:36:38;9.38;86.74
49489;SHT31;35382;51.484;11.476;2023-11-19T15:39:04;9.29;86.90
49489;SHT31;35382;51.484;11.476;2023-11-19T15:41:30;9.33;86.83
49489;SHT31;35382;51.484;11.476;2023-11-19T15:43:55;9.35;86.83
49489;SHT31;35382;51.484;11.476;2023-11-19T15:46:20;9.20;87.14
49489;SHT31;35382;51.484;11.476;2023-11-19T15:48:46;9.01;87.77
49489;SHT31;35382;51.484;11.476;2023-11-19T15:51:11;8.92;88.63
49489;SHT31;35382;51.484;11.476;2023-11-19T15:53:37;8.79;88.77
49489;SHT31;35382;51.484;11.476;2023-11-19T15:56:02;8.78;89.62
49489;SHT31;35382;51.484;11.476;2023-11-19T15:58:28;8.75;90.59
49489;SHT31;35382;51.484;11.476;2023-11-19T16:00:53;8.89;90.56
49489;SHT31;35382;51.484;11.476;2023-11-19T16:03:19;9.06;89.96
49489;SHT31;35382;51.484;11.476;2023-11-19T16:05:44;9.26;89.17
49489;SHT31;35382;51.484;11.476;2023-11-19T16:08:10;9.28;89.18
49489;SHT31;35382;51.484;11.476;2023-11-19T16:10:35;9.23;89.48
49489;SHT31;35382;51.484;11.476;2023-11-19T16:13:00;9.18;89.63
49489;SHT31;35382;51.484;11.476;2023-11-19T16:15:26;9.23;88.70
49489;SHT31;35382;51.484;11.476;2023-11-19T16:17:51;9.25;88.11
49489;SHT31;35382;51.484;11.476;2023-11-19T16:20:16;9.14;88.29
49489;SHT31;35382;51.484;11.476;2023-11-19T16:22:43;9.06;88.24
49489;SHT31;35382;51.484;11.476;2023-11-19T16:25:09;8.91;88.43
49489;SHT31;35382;51.484;11.476;2023-11-19T16:27:34;8.65;89.33
49489;SHT31;35382;51.484;11.476;2023-11-19T16:30:00;8.60;89.40
49489;SHT31;35382;51.484;11.476;2023-11-19T16:32:25;8.52;89.34
49489;SHT31;35382;51.484;11.476;2023-11-19T16:34:50;8.37;89.33
49489;SHT31;35382;51.484;11.476;2023-11-19T16:37:16;8.36;89.79
49489;SHT31;35382;51.484;11.476;2023-11-19T16:39:42;8.30;89.71
49489;SHT31;35382;51.484;11.476;2023-11-19T16:42:09;8.40;90.08
49489;SHT31;35382;51.484;11.476;2023-11-19T16:44:34;8.41;89.93
49489;SHT31;35382;51.484;11.476;2023-11-19T16:47:00;8.52;89.48
49489;SHT31;35382;51.484;11.476;2023-11-19T16:49:26;8.44;89.77
49489;SHT31;35382;51.484;11.476;2023-11-19T16:51:52;8.41;89.72
49489;SHT31;35382;51.484;11.476;2023-11-19T16:54:17;8.54;89.08
49489;SHT31;35382;51.484;11.476;2023-11-19T16:56:43;8.47;89.32
49489;SHT31;35382;51.484;11.476;2023-11-19T16:59:08;8.38;89.41
49489;SHT31;35382;51.484;11.476;2023-11-19T17:01:34;8.38;89.33
49489;SHT31;35382;51.484;11.476;2023-11-19T17:03:59;8.27;89.77